メインページ
METAR-TAF:

METAR-TAF

空港 :

ヤクーツク空港

ヤクーツク, ロシア

緯度: 62-01N, 経度: 129-43E, 海抜: 103m

現時点の気象観測

当レポートは47分前の16:00(UTC)に作成
北/北西の風 2kt
気温 -39°C
湿度 65%
気圧 1006 hPa
視程: 1000m

METAR: UEEE 171600Z 34001MPS 1200 1000NE R23L/P2000N BR NSC M39/M43 Q1006 R23L/450155 NOSIG RMK QFE746

時間: 01:47 (16:47 UTC)

予報

当レポートは32分前の16:15(UTC)に作成
予報は17日の 16時(UTC)から 18日の 21時(UTC)まで有効
変向風 2kt
視程: 0300m
高度300ftの
17日の 16時(UTC)から 18日の 03時(UTC)まで一時的に
視程: 0800m
18日の 03時(UTC)から 18日の 12時(UTC)まで一時的に
視程: 1500m

TAF: UEEE 171615Z 1716/1821 VRB01MPS 0300 FG VV003 TXM38/1806Z TNM42/1722Z TEMPO 1716/1803 0800 FG NSC TEMPO 1803/1812 1500 BR NSC

4,000以上の空港の気象観測と天気予報(METAR報とTAF報)

利用可能な観測所は地図上に黄色い丸と赤い丸で示す。

丸の上にカーソルを重ねると観測所名を参照できる。

次にクリックすると気象観測と天気予報を参照できる。

マップの切り替え:黒色「×」印の緑ボタンをクリックして拡大、「-」印の緑ボタンをクリックして縮小、緑色の三角印をクリックして隣りの地図に切り替え


METAR-TAF: